Time;durP1;ratioP1;P1;durP2;ratioP2;P2;SDS_P1;SDS_P2;PMS_P1;PMS_P2;Temp;Humidity;BMP_temperature;BMP_pressure;BME280_temperature;BME280_humidity;BME280_pressure;Samples;Min_cycle;Max_cycle;Signal;HPM_P1;HPM_P2
2022/03/07 00:00:17;;;;;;;30.23;13.68;;;;;;;1.29;64.33;101076.53;4878990;29;20060;-74
2022/03/07 00:02:45;;;;;;;28.92;13.07;;;;;;;1.26;63.67;101068.84;4877889;29;20056;-73
2022/03/07 00:05:15;;;;;;;25.27;12.75;;;;;;;1.24;64.07;101078.19;4878943;29;20053;-73
2022/03/07 00:07:43;;;;;;;32.65;13.93;;;;;;;1.24;64.00;101080.88;4878749;29;20049;-74
2022/03/07 00:10:11;;;;;;;27.20;12.95;;;;;;;1.20;64.92;101075.91;4878681;29;20052;-74
2022/03/07 00:12:39;;;;;;;29.77;12.88;;;;;;;1.23;65.81;101082.75;4878850;29;20060;-74
2022/03/07 00:15:07;;;;;;;23.73;11.77;;;;;;;1.18;65.44;101086.06;4878903;29;20061;-74
2022/03/07 00:17:35;;;;;;;27.00;12.63;;;;;;;1.18;64.72;101083.34;4879315;29;20057;-73
2022/03/07 00:20:04;;;;;;;24.67;13.02;;;;;;;1.10;64.82;101085.41;4879350;29;20060;-74
2022/03/07 00:22:32;;;;;;;27.60;13.75;;;;;;;1.05;65.58;101092.25;4878774;29;20049;-74
2022/03/07 00:25:00;;;;;;;27.00;12.48;;;;;;;1.03;66.17;101080.03;4878929;29;20163;-73
2022/03/07 00:27:28;;;;;;;24.38;11.60;;;;;;;1.03;65.14;101102.41;4878225;29;20053;-73
2022/03/07 00:29:58;;;;;;;25.83;11.98;;;;;;;1.04;64.92;101098.66;4880264;29;20060;-74
2022/03/07 00:32:26;;;;;;;25.92;11.90;;;;;;;1.03;64.61;101094.31;4881389;29;20061;-74
2022/03/07 00:34:54;;;;;;;23.45;11.95;;;;;;;1.05;65.10;101092.25;4879015;29;20049;-73
2022/03/07 00:37:24;;;;;;;25.15;12.18;;;;;;;1.18;64.26;101104.94;4878790;29;20068;-73
2022/03/07 00:39:51;;;;;;;21.25;11.38;;;;;;;1.11;64.78;101109.47;4877362;29;20049;-74
2022/03/07 00:42:20;;;;;;;25.45;12.82;;;;;;;1.09;65.07;101103.47;4878387;29;20060;-73
2022/03/07 00:44:48;;;;;;;23.20;11.45;;;;;;;1.07;65.01;101103.66;4877117;29;20061;-74
2022/03/07 00:47:16;;;;;;;24.30;11.60;;;;;;;0.99;66.02;101106.56;4878651;29;20041;-74
2022/03/07 00:49:44;;;;;;;21.15;11.90;;;;;;;0.94;65.23;101109.03;4878508;29;20045;-73
2022/03/07 00:52:12;;;;;;;24.45;11.95;;;;;;;0.89;65.84;101111.50;4879043;29;20061;-74
2022/03/07 00:54:40;;;;;;;21.10;11.15;;;;;;;0.85;66.10;101104.84;4878614;29;20057;-74
2022/03/07 00:57:08;;;;;;;22.73;10.82;;;;;;;0.77;66.64;101106.69;4876901;29;20049;-71
2022/03/07 00:59:35;;;;;;;24.48;12.75;;;;;;;0.73;66.73;101108.09;4878689;29;20057;-72
2022/03/07 01:02:03;;;;;;;25.00;11.43;;;;;;;0.71;66.42;101099.41;4877379;29;20057;-72
2022/03/07 01:04:31;;;;;;;25.63;11.63;;;;;;;0.69;66.80;101103.31;4878041;29;20053;-72
2022/03/07 01:07:03;;;;;;;25.80;12.15;;;;;;;0.72;66.58;101102.91;4877740;29;20056;-73
2022/03/07 01:09:31;;;;;;;27.55;12.07;;;;;;;0.79;66.67;101101.91;4876990;29;20041;-74
2022/03/07 01:11:59;;;;;;;24.48;11.15;;;;;;;0.81;66.61;101107.09;4878306;29;20056;-73
2022/03/07 01:14:27;;;;;;;27.17;11.95;;;;;;;0.70;66.96;101095.06;4881190;29;20057;-73
2022/03/07 01:16:55;;;;;;;27.25;12.77;;;;;;;0.63;67.14;101097.72;4882147;29;20053;-72
2022/03/07 01:19:23;;;;;;;25.67;12.68;;;;;;;0.58;67.43;101096.66;4880762;29;20036;-73
2022/03/07 01:21:51;;;;;;;27.40;12.63;;;;;;;0.51;67.43;101089.38;4882110;29;20053;-73
2022/03/07 01:24:19;;;;;;;24.10;11.88;;;;;;;0.45;68.16;101089.34;4868884;29;20061;-73
2022/03/07 01:26:48;;;;;;;28.48;12.43;;;;;;;0.39;68.40;101088.28;4880570;29;20049;-73
2022/03/07 01:29:16;;;;;;;21.58;11.20;;;;;;;0.38;68.66;101083.91;4881461;29;20053;-73
2022/03/07 01:31:45;;;;;;;24.23;11.52;;;;;;;0.33;68.73;101081.81;4888052;29;20049;-73
2022/03/07 01:34:13;;;;;;;30.15;12.93;;;;;;;0.32;69.19;101079.31;4881259;29;20053;-73
2022/03/07 01:36:41;;;;;;;29.02;13.57;;;;;;;0.35;70.70;101076.25;4881773;29;20053;-73
2022/03/07 01:39:09;;;;;;;29.73;12.55;;;;;;;0.34;69.43;101071.91;4880081;29;20060;-73
2022/03/07 01:41:38;;;;;;;25.48;11.93;;;;;;;0.38;69.41;101073.13;4881347;29;20049;-73
2022/03/07 01:44:17;;;;;;;28.80;12.20;;;;;;;0.38;68.99;101065.06;4879622;29;20404;-73
2022/03/07 01:46:47;;;;;;;22.90;11.75;;;;;;;0.39;70.44;101069.44;4881190;29;20052;-73
2022/03/07 01:49:16;;;;;;;30.77;12.73;;;;;;;0.36;69.93;101061.75;4879720;29;20056;-73
2022/03/07 01:51:45;;;;;;;25.15;11.25;;;;;;;0.32;69.63;101065.84;4880151;29;20068;-73
2022/03/07 01:54:15;;;;;;;22.90;13.15;;;;;;;0.26;69.99;101068.31;4880909;29;20416;-73
2022/03/07 01:56:45;;;;;;;24.60;11.70;;;;;;;0.21;70.14;101060.03;4879798;29;20060;-73
2022/03/07 01:59:15;;;;;;;28.65;12.40;;;;;;;0.18;70.08;101055.03;4879896;29;20053;-73
2022/03/07 02:01:44;;;;;;;28.27;13.40;;;;;;;0.19;70.12;101054.00;4879972;29;20056;-73
2022/03/07 02:04:12;;;;;;;26.05;11.90;;;;;;;0.13;70.04;101060.19;4879130;29;20500;-73
2022/03/07 02:06:40;;;;;;;23.13;11.45;;;;;;;0.06;70.38;101057.47;4879801;29;20076;-73
2022/03/07 02:09:10;;;;;;;23.90;11.40;;;;;;;0.03;71.17;101054.31;4880844;29;20064;-73
2022/03/07 02:11:42;;;;;;;28.27;11.82;;;;;;;-0.01;70.67;101057.41;4879318;29;20052;-73
2022/03/07 02:14:23;;;;;;;23.90;11.50;;;;;;;-0.06;71.13;101054.47;4880125;29;20131;-73
2022/03/07 02:16:55;;;;;;;26.00;11.40;;;;;;;-0.06;72.22;101059.88;4879271;29;20053;-73
2022/03/07 02:19:23;;;;;;;26.15;12.40;;;;;;;-0.05;70.49;101061.53;4879656;29;20049;-73
2022/03/07 02:21:59;;;;;;;23.20;11.80;;;;;;;-0.08;70.92;101055.69;4879338;29;20049;-73
2022/03/07 02:24:32;;;;;;;22.15;11.15;;;;;;;-0.06;70.99;101053.63;4878919;29;20049;-73
2022/03/07 02:27:07;;;;;;;22.95;11.85;;;;;;;-0.03;70.76;101046.03;4879043;29;20530;-73
2022/03/07 02:29:40;;;;;;;22.48;10.20;;;;;;;-0.07;71.29;101034.00;4881492;29;20045;-73
2022/03/07 02:32:13;;;;;;;23.83;11.18;;;;;;;-0.12;70.60;101043.66;4883383;29;20060;-73
2022/03/07 02:34:45;;;;;;;21.60;10.65;;;;;;;-0.17;71.26;101041.56;4879593;29;20053;-73
2022/03/07 02:37:23;;;;;;;22.17;10.82;;;;;;;-0.16;71.92;101037.84;4879577;29;20057;-73
2022/03/07 02:39:55;;;;;;;21.55;10.88;;;;;;;-0.15;71.22;101042.19;4879310;29;20061;-73
2022/03/07 02:42:41;;;;;;;22.15;10.93;;;;;;;-0.16;71.29;101046.75;4878842;29;20049;-73
2022/03/07 02:45:09;;;;;;;19.77;10.30;;;;;;;-0.19;72.17;101040.94;4878670;29;20053;-73
2022/03/07 02:47:37;;;;;;;24.02;10.45;;;;;;;-0.23;72.03;101035.13;4878507;29;20408;-73
2022/03/07 02:50:05;;;;;;;21.35;10.52;;;;;;;-0.24;71.65;101038.84;4878529;29;20500;-73
2022/03/07 02:52:33;;;;;;;24.45;10.45;;;;;;;-0.25;71.59;101041.72;4878820;29;20053;-73
2022/03/07 02:55:01;;;;;;;22.48;11.20;;;;;;;-0.30;72.55;101029.69;4880430;29;20061;-73
2022/03/07 02:57:29;;;;;;;23.45;10.65;;;;;;;-0.30;72.32;101037.75;4880827;29;20060;-73
2022/03/07 02:59:56;;;;;;;22.33;9.23;;;;;;;-0.36;72.47;101033.16;4880369;29;20052;-73
2022/03/07 03:02:24;;;;;;;20.52;10.23;;;;;;;-0.41;72.18;101033.75;4879945;29;20057;-73
2022/03/07 03:04:52;;;;;;;24.98;10.40;;;;;;;-0.42;72.15;101036.66;4879904;29;20060;-73
2022/03/07 03:07:20;;;;;;;24.08;9.75;;;;;;;-0.10;71.18;101039.75;4880377;29;20072;-73
2022/03/07 03:09:50;;;;;;;25.25;10.00;;;;;;;0.02;70.37;101037.34;4880166;29;20065;-73
2022/03/07 03:12:24;;;;;;;24.45;11.02;;;;;;;-0.07;70.09;101034.00;4879955;29;20523;-74
2022/03/07 03:14:52;;;;;;;18.13;9.07;;;;;;;-0.26;71.45;101034.69;4880612;29;20068;-73
2022/03/07 03:17:20;;;;;;;22.73;10.35;;;;;;;-0.37;72.24;101033.34;4879980;29;20045;-73
2022/03/07 03:19:48;;;;;;;24.02;9.75;;;;;;;-0.41;72.18;101033.75;4880061;29;20064;-73
2022/03/07 03:22:19;;;;;;;21.65;9.75;;;;;;;-0.45;72.37;101028.94;4879418;29;20045;-73
2022/03/07 03:24:48;;;;;;;22.48;11.02;;;;;;;-0.50;72.48;101029.53;4879461;29;20049;-73
2022/03/07 03:27:16;;;;;;;21.83;9.88;;;;;;;-0.42;72.76;101031.25;4879400;29;20449;-73
2022/03/07 03:29:44;;;;;;;18.42;9.55;;;;;;;-0.39;72.52;101025.47;4880769;29;20041;-73
2022/03/07 03:32:11;;;;;;;20.00;9.82;;;;;;;-0.24;71.83;101032.63;4884393;29;20068;-73
2022/03/07 03:34:40;;;;;;;22.50;10.55;;;;;;;0.05;70.17;101038.81;4879517;29;20408;-73
2022/03/07 03:37:08;;;;;;;19.33;10.15;;;;;;;0.02;70.49;101031.97;4878884;29;20072;-73
2022/03/07 03:39:35;;;;;;;22.40;10.65;;;;;;;0.07;70.14;101042.13;4879811;29;20480;-73
2022/03/07 03:42:04;;;;;;;21.90;9.48;;;;;;;0.14;69.81;101032.22;4879184;29;20068;-73
2022/03/07 03:44:32;;;;;;;18.33;9.15;;;;;;;0.17;69.81;101029.16;4879098;29;20053;-73
2022/03/07 03:47:00;;;;;;;19.48;9.80;;;;;;;0.13;69.57;101027.88;4879212;29;20496;-73
2022/03/07 03:49:30;;;;;;;21.63;10.50;;;;;;;-0.02;71.13;101031.53;4879235;29;20492;-73
2022/03/07 03:51:58;;;;;;;22.20;10.00;;;;;;;-0.12;70.91;101033.75;4879690;29;20052;-73
2022/03/07 03:54:25;;;;;;;23.17;10.68;;;;;;;-0.28;72.27;101038.38;4879168;29;20048;-74
2022/03/07 03:56:53;;;;;;;21.48;10.05;;;;;;;-0.37;72.22;101033.34;4879472;29;20063;-74
2022/03/07 03:59:21;;;;;;;21.38;10.25;;;;;;;-0.49;72.87;101035.75;4879476;29;20060;-74
2022/03/07 04:01:49;;;;;;;27.42;11.63;;;;;;;-0.56;73.18;101036.53;4879437;29;20049;-74
2022/03/07 04:04:17;;;;;;;20.05;10.27;;;;;;;-0.56;73.62;101031.16;4878848;29;20053;-73
2022/03/07 04:06:45;;;;;;;20.58;9.45;;;;;;;-0.61;74.09;101030.91;4878969;29;20049;-75
2022/03/07 04:09:17;;;;;;;22.33;10.10;;;;;;;-0.65;74.02;101028.81;4879051;29;20131;-73
2022/03/07 04:11:46;;;;;;;20.65;9.57;;;;;;;-0.63;73.63;101035.63;4879063;29;20385;-73
2022/03/07 04:14:14;;;;;;;22.70;10.50;;;;;;;-0.56;74.21;101036.53;4878852;29;20053;-74
2022/03/07 04:16:42;;;;;;;22.90;10.80;;;;;;;-0.63;74.03;101030.25;4879197;29;20064;-73
2022/03/07 04:19:11;;;;;;;20.35;9.35;;;;;;;-0.71;74.14;101036.63;4878974;29;20056;-73
2022/03/07 04:21:40;;;;;;;21.65;9.82;;;;;;;-0.47;73.38;101039.09;4878836;29;20502;-73
2022/03/07 04:24:09;;;;;;;22.65;10.30;;;;;;;-0.43;73.97;101037.69;4878836;29;20040;-73
2022/03/07 04:26:39;;;;;;;20.80;9.90;;;;;;;-0.31;72.61;101044.19;4879202;29;20063;-73
2022/03/07 04:29:10;;;;;;;20.25;9.82;;;;;;;-0.39;73.31;101038.13;4879110;29;20055;-73
2022/03/07 04:31:40;;;;;;;21.45;9.75;;;;;;;-0.48;73.71;101040.13;4885190;29;20432;-73
2022/03/07 04:34:09;;;;;;;24.10;10.43;;;;;;;-0.53;73.87;101034.47;4878799;29;20056;-73
2022/03/07 04:36:38;;;;;;;16.80;9.50;;;;;;;-0.58;74.28;101043.94;4878956;29;20511;-73
2022/03/07 04:39:09;;;;;;;25.90;9.98;;;;;;;-0.66;74.40;101046.78;4879057;29;20060;-74
2022/03/07 04:41:37;;;;;;;20.38;10.00;;;;;;;-0.72;75.00;101052.94;4878663;29;20049;-73
2022/03/07 04:44:06;;;;;;;20.55;10.60;;;;;;;-0.80;74.65;101045.84;4878041;29;20053;-73
2022/03/07 04:46:34;;;;;;;23.75;10.02;;;;;;;-0.74;75.02;101044.25;4879123;29;20049;-73
2022/03/07 04:49:03;;;;;;;19.08;10.15;;;;;;;-0.57;74.10;101053.72;4881560;29;20124;-73
2022/03/07 04:51:31;;;;;;;20.17;9.95;;;;;;;-0.57;73.69;101056.41;4882600;29;20056;-73
2022/03/07 04:53:59;;;;;;;22.70;9.88;;;;;;;-0.56;73.80;101067.97;4882645;29;20053;-73
2022/03/07 04:56:27;;;;;;;22.23;10.27;;;;;;;-0.44;73.23;101066.41;4882089;29;20473;-72
2022/03/07 04:58:54;;;;;;;19.80;10.07;;;;;;;-0.42;73.36;101063.53;4882627;29;20535;-72
2022/03/07 05:01:22;;;;;;;22.52;9.57;;;;;;;-0.45;73.30;101067.44;4882212;29;20051;-73
2022/03/07 05:03:50;;;;;;;18.15;9.32;;;;;;;-0.46;73.51;101064.94;4881849;29;20064;-73
2022/03/07 05:06:18;;;;;;;21.75;8.98;;;;;;;-0.42;73.22;101067.06;4881677;29;20381;-73
2022/03/07 05:08:46;;;;;;;20.90;9.98;;;;;;;-0.49;73.49;101059.97;4882502;29;20068;-73
2022/03/07 05:11:14;;;;;;;21.50;9.23;;;;;;;-0.66;74.58;101062.91;4880599;29;20053;-73
2022/03/07 05:13:41;;;;;;;26.88;10.38;;;;;;;-0.77;75.32;101066.13;4881723;29;20053;-73
2022/03/07 05:16:09;;;;;;;24.80;9.32;;;;;;;-0.88;76.09;101067.47;4880823;29;20060;-74
2022/03/07 05:18:38;;;;;;;22.80;9.57;;;;;;;-0.85;76.15;101069.75;4881617;29;20416;-73
2022/03/07 05:21:05;;;;;;;22.90;10.60;;;;;;;-0.84;76.04;101072.25;4881039;29;20084;-73
2022/03/07 05:23:33;;;;;;;20.80;9.80;;;;;;;-0.85;75.98;101065.22;4881450;29;20053;-73
2022/03/07 05:26:01;;;;;;;20.85;10.02;;;;;;;-0.82;75.53;101074.78;4880180;29;20076;-73
2022/03/07 05:28:29;;;;;;;24.70;11.05;;;;;;;-0.87;75.94;101067.25;4881467;29;20053;-73
2022/03/07 05:30:57;;;;;;;21.70;10.00;;;;;;;-0.93;75.88;101072.59;4879634;29;20053;-73
2022/03/07 05:33:25;;;;;;;21.13;10.07;;;;;;;-0.93;75.86;101076.09;4881258;29;20056;-73
2022/03/07 05:35:53;;;;;;;21.00;10.30;;;;;;;-0.94;76.51;101071.75;4880616;29;20051;-73
2022/03/07 05:38:20;;;;;;;21.20;10.23;;;;;;;-0.93;77.60;101072.59;4881728;29;20057;-74
2022/03/07 05:40:48;;;;;;;28.50;9.90;;;;;;;-0.96;76.56;101079.16;4880482;29;20045;-73
2022/03/07 05:43:16;;;;;;;24.13;10.50;;;;;;;-0.89;76.29;101080.06;4881190;29;20056;-73
2022/03/07 05:45:44;;;;;;;23.75;11.10;;;;;;;-0.79;76.17;101084.31;4880052;29;20060;-73
2022/03/07 05:48:12;;;;;;;32.65;12.93;;;;;;;-0.62;75.37;101087.56;4880414;29;20053;-74
2022/03/07 05:50:41;;;;;;;28.85;12.93;;;;;;;-0.61;75.21;101090.06;4881277;29;20064;-73
2022/03/07 05:53:10;;;;;;;28.77;13.82;;;;;;;-0.51;75.06;101091.56;4880779;29;20060;-74
2022/03/07 05:55:38;;;;;;;27.38;13.13;;;;;;;-0.64;75.50;101087.75;4881261;29;20064;-73
2022/03/07 05:58:06;;;;;;;28.92;13.40;;;;;;;-0.71;75.96;101086.84;4879071;29;20060;-73
2022/03/07 06:00:34;;;;;;;24.60;11.68;;;;;;;-0.61;74.83;101097.28;4877767;29;20539;-73
2022/03/07 06:03:02;;;;;;;24.05;10.60;;;;;;;-0.65;74.92;101093.34;4878956;29;20057;-72
2022/03/07 06:05:31;;;;;;;23.15;11.27;;;;;;;-0.60;74.74;101105.16;4872656;29;20052;-73
2022/03/07 06:08:00;;;;;;;23.17;11.10;;;;;;;-0.45;73.93;101105.09;4878897;29;20060;-72
2022/03/07 06:10:27;;;;;;;21.25;10.15;;;;;;;-0.37;74.07;101114.88;4877559;29;20057;-71
2022/03/07 06:12:55;;;;;;;25.42;10.88;;;;;;;-0.11;72.84;101099.97;4878954;29;20053;-72
2022/03/07 06:15:24;;;;;;;25.00;9.73;;;;;;;-0.12;72.69;101110.94;4877767;29;20049;-73
2022/03/07 06:17:53;;;;;;;19.90;9.75;;;;;;;0.04;71.79;101116.00;4878733;29;20401;-78
2022/03/07 06:20:23;;;;;;;22.38;10.82;;;;;;;0.11;72.21;101108.00;4878917;29;20053;-78
2022/03/07 06:22:51;;;;;;;19.65;9.68;;;;;;;0.23;71.40;101103.72;4879974;29;20053;-78
2022/03/07 06:25:19;;;;;;;19.35;9.45;;;;;;;0.31;70.68;101104.59;4879344;29;20049;-77
2022/03/07 06:27:47;;;;;;;20.60;9.52;;;;;;;0.35;70.87;101122.03;4878900;29;20416;-77
2022/03/07 06:30:15;;;;;;;20.60;10.13;;;;;;;0.48;69.85;101122.09;4879156;29;20056;-77
2022/03/07 06:32:43;;;;;;;22.88;9.93;;;;;;;0.57;68.59;101124.59;4889644;29;20142;-77
2022/03/07 06:35:13;;;;;;;23.65;10.98;;;;;;;0.74;68.92;101125.13;4884038;29;20083;-77
2022/03/07 06:37:52;;;;;;;25.42;10.73;;;;;;;0.91;68.25;101131.81;4878616;29;20049;-77
2022/03/07 06:40:22;;;;;;;20.95;10.57;;;;;;;1.18;67.00;101131.06;4878498;29;20056;-77
2022/03/07 06:42:50;;;;;;;21.13;9.75;;;;;;;1.59;66.89;101127.41;4879268;29;20409;-77
2022/03/07 06:45:18;;;;;;;22.48;9.32;;;;;;;1.79;64.83;101134.69;4845931;29;20060;-72
2022/03/07 06:47:47;;;;;;;20.52;9.82;;;;;;;1.92;63.43;101124.91;4878315;29;20060;-71
2022/03/07 06:50:16;;;;;;;24.25;10.50;;;;;;;2.08;63.42;101123.66;4879845;29;20396;-71
2022/03/07 06:52:44;;;;;;;21.60;11.00;;;;;;;2.38;62.13;101137.53;4880066;29;20056;-72
2022/03/07 06:55:13;;;;;;;25.30;9.38;;;;;;;2.51;61.36;101143.94;4879610;29;20049;-72
2022/03/07 06:57:42;;;;;;;22.38;10.02;;;;;;;2.47;61.23;101140.84;4879325;29;20412;-72
2022/03/07 07:00:15;;;;;;;21.55;10.23;;;;;;;2.68;60.60;101144.28;4880113;29;20049;-72
2022/03/07 07:02:44;;;;;;;18.38;10.13;;;;;;;2.65;61.29;101140.13;4879286;29;20057;-72
2022/03/07 07:05:13;;;;;;;19.88;9.68;;;;;;;2.77;62.05;101148.44;4880049;29;20492;-72
2022/03/07 07:07:42;;;;;;;24.55;10.50;;;;;;;2.93;61.09;101141.72;4879196;29;20064;-72
2022/03/07 07:10:11;;;;;;;23.63;10.50;;;;;;;3.13;60.92;101142.66;4878928;29;20056;-74
2022/03/07 07:12:39;;;;;;;21.95;9.57;;;;;;;3.17;60.65;101146.59;4879395;29;20052;-73
2022/03/07 07:15:07;;;;;;;22.55;10.55;;;;;;;3.43;59.48;101139.38;4879270;29;20057;-75
2022/03/07 07:17:36;;;;;;;22.13;11.02;;;;;;;3.71;58.03;101147.06;4878927;29;20147;-73
2022/03/07 07:20:06;;;;;;;25.95;11.43;;;;;;;3.68;58.13;101149.41;4879137;29;20500;-72
2022/03/07 07:22:34;;;;;;;31.05;11.10;;;;;;;3.84;58.61;101154.28;4879170;29;20045;-73
2022/03/07 07:25:04;;;;;;;28.33;12.50;;;;;;;4.42;57.78;101167.72;4878057;29;20049;-73
2022/03/07 07:27:32;;;;;;;31.05;11.70;;;;;;;4.72;56.42;101161.56;4879446;29;20496;-73
2022/03/07 07:30:01;;;;;;;24.83;10.93;;;;;;;4.67;55.89;101161.41;4879450;29;20405;-72
2022/03/07 07:32:29;;;;;;;23.25;10.43;;;;;;;4.95;56.62;101160.84;4878926;29;20049;-72
2022/03/07 07:34:57;;;;;;;25.13;11.85;;;;;;;4.99;55.87;101169.41;4879176;29;20501;-72
2022/03/07 07:37:25;;;;;;;23.42;11.15;;;;;;;5.03;56.10;101162.44;4879726;29;20056;-73
2022/03/07 07:39:52;;;;;;;28.60;12.32;;;;;;;5.31;55.90;101174.59;4879073;29;20053;-72
2022/03/07 07:42:20;;;;;;;23.08;11.93;;;;;;;5.14;54.92;101174.44;4878867;29;20408;-73
2022/03/07 07:44:48;;;;;;;27.67;11.85;;;;;;;5.19;55.02;101173.72;4878931;29;20115;-73
2022/03/07 07:47:16;;;;;;;28.95;13.02;;;;;;;5.45;54.34;101179.84;4878495;29;20056;-72
2022/03/07 07:49:44;;;;;;;25.63;12.02;;;;;;;5.49;53.70;101176.44;4878941;29;20413;-73
2022/03/07 07:52:11;;;;;;;21.75;11.70;;;;;;;5.63;53.66;101176.25;4879125;29;20527;-72
2022/03/07 07:54:39;;;;;;;23.00;11.50;;;;;;;5.99;51.95;101179.03;4878925;29;20052;-72
2022/03/07 07:57:07;;;;;;;26.52;12.65;;;;;;;5.86;51.37;101180.09;4878735;29;20064;-72
2022/03/07 07:59:35;;;;;;;21.05;11.65;;;;;;;6.08;51.39;101177.66;4878637;29;20528;-72
2022/03/07 08:02:21;;;;;;;26.67;14.07;;;;;;;6.48;50.17;101181.56;4878136;29;20063;-73
2022/03/07 08:04:51;;;;;;;29.70;13.10;;;;;;;6.88;50.08;101179.16;4878236;29;20057;-72
2022/03/07 08:07:23;;;;;;;22.98;11.95;;;;;;;7.28;49.05;101182.94;4878398;29;20416;-73
2022/03/07 08:09:52;;;;;;;21.00;11.70;;;;;;;7.58;47.21;101187.28;4878400;29;20060;-73
2022/03/07 08:12:20;;;;;;;24.58;12.07;;;;;;;7.61;46.14;101184.91;4878425;29;20049;-73
2022/03/07 08:14:48;;;;;;;23.58;12.18;;;;;;;7.38;46.05;101188.59;4878573;29;20061;-73
2022/03/07 08:17:17;;;;;;;28.30;14.00;;;;;;;7.39;46.66;101176.63;4878268;29;20053;-73
2022/03/07 08:19:45;;;;;;;28.55;12.18;;;;;;;7.44;46.54;101179.44;4878047;29;20056;-72
2022/03/07 08:22:13;;;;;;;21.55;11.45;;;;;;;7.50;45.63;101181.19;4877970;29;20531;-73
2022/03/07 08:24:41;;;;;;;21.10;11.48;;;;;;;7.51;44.91;101184.72;4878003;29;20056;-73
2022/03/07 08:27:11;;;;;;;19.65;10.52;;;;;;;7.92;43.51;101179.16;4878546;29;20412;-73
2022/03/07 08:29:39;;;;;;;19.40;10.65;;;;;;;7.71;42.81;101178.81;4878600;29;20045;-72
2022/03/07 08:32:07;;;;;;;19.58;9.43;;;;;;;7.88;41.37;101176.09;4878392;29;20049;-72
2022/03/07 08:34:35;;;;;;;21.73;11.50;;;;;;;8.06;39.98;101177.75;4878529;29;20060;-72
2022/03/07 08:37:03;;;;;;;15.38;8.63;;;;;;;8.24;37.47;101173.13;4878416;29;20053;-72
2022/03/07 08:39:31;;;;;;;14.68;8.77;;;;;;;7.80;39.08;101174.63;4878092;29;20060;-73
2022/03/07 08:41:59;;;;;;;14.63;8.30;;;;;;;8.05;38.95;101173.38;4878171;29;20053;-73
2022/03/07 08:44:26;;;;;;;17.02;9.48;;;;;;;8.47;37.36;101168.53;4877868;29;20397;-73
2022/03/07 08:46:54;;;;;;;17.92;8.80;;;;;;;8.39;37.65;101172.53;4878161;29;20053;-73
2022/03/07 08:49:22;;;;;;;16.13;9.02;;;;;;;8.40;37.54;101178.81;4876638;29;20057;-73
2022/03/07 08:51:50;;;;;;;16.95;9.43;;;;;;;8.44;37.13;101178.06;4877951;29;20041;-73
2022/03/07 08:54:18;;;;;;;17.38;9.13;;;;;;;8.51;38.52;101171.59;4877998;29;20412;-73
2022/03/07 08:56:46;;;;;;;14.02;8.93;;;;;;;8.19;38.53;101173.88;4878254;29;20057;-73
2022/03/07 08:59:14;;;;;;;18.13;9.10;;;;;;;8.63;39.09;101177.78;4877911;29;20060;-73
2022/03/07 09:01:42;;;;;;;14.80;8.82;;;;;;;8.63;37.43;101182.41;4876532;29;20045;-73
2022/03/07 09:04:09;;;;;;;13.57;7.93;;;;;;;8.74;37.39;101176.03;4877858;29;20369;-73
2022/03/07 09:06:37;;;;;;;15.63;9.35;;;;;;;8.87;38.21;101185.75;4877681;29;20064;-73
2022/03/07 09:09:05;;;;;;;14.82;9.23;;;;;;;9.11;36.90;101185.50;4877816;29;20066;-73
2022/03/07 09:11:53;;;;;;;14.57;8.40;;;;;;;9.29;36.32;101197.97;4877830;29;20061;-73
2022/03/07 09:14:21;;;;;;;13.30;8.45;;;;;;;8.85;36.83;101187.91;4877751;29;20056;-73
2022/03/07 09:16:49;;;;;;;15.48;8.55;;;;;;;9.32;35.54;101185.69;4877765;29;20045;-73
2022/03/07 09:19:17;;;;;;;18.27;9.00;;;;;;;9.09;35.84;101188.47;4878117;29;20059;-71
2022/03/07 09:21:45;;;;;;;15.52;8.82;;;;;;;8.78;36.52;101193.53;4877608;29;20408;-73
2022/03/07 09:24:14;;;;;;;13.35;8.70;;;;;;;9.11;36.85;101190.94;4877573;29;20540;-73
2022/03/07 09:26:42;;;;;;;17.17;9.18;;;;;;;9.55;36.35;101192.78;4877995;29;20511;-73
2022/03/07 09:29:10;;;;;;;15.57;8.20;;;;;;;9.45;36.38;101188.06;4877651;29;20053;-73
2022/03/07 09:31:39;;;;;;;17.90;9.30;;;;;;;9.27;36.99;101189.22;4878125;29;20049;-73
2022/03/07 09:34:07;;;;;;;17.10;9.35;;;;;;;9.71;36.64;101191.03;4877736;29;20053;-74
2022/03/07 09:36:36;;;;;;;20.58;9.25;;;;;;;9.32;36.17;101189.28;4881725;29;20049;-71
2022/03/07 09:39:05;;;;;;;25.77;14.25;;;;;;;9.37;36.33;101199.41;4881187;29;20060;-72
2022/03/07 09:41:33;;;;;;;16.52;9.43;;;;;;;9.27;37.00;101187.31;4881143;29;20496;-72
2022/03/07 09:44:00;;;;;;;19.20;9.35;;;;;;;8.91;36.25;101191.53;4880888;29;20436;-72
2022/03/07 09:46:29;;;;;;;19.25;9.57;;;;;;;9.08;36.43;101189.56;4881373;29;20053;-72
2022/03/07 09:48:57;;;;;;;13.95;8.80;;;;;;;9.10;36.62;101179.19;4881659;29;20080;-72
2022/03/07 09:51:24;;;;;;;17.00;9.65;;;;;;;9.44;36.63;101191.88;4881079;29;20053;-73
2022/03/07 09:53:52;;;;;;;17.35;9.50;;;;;;;9.07;37.87;101181.59;4881045;29;20076;-73
2022/03/07 09:56:20;;;;;;;31.42;14.32;;;;;;;9.30;37.06;101176.94;4880768;29;20041;-73
2022/03/07 09:58:48;;;;;;;16.02;10.68;;;;;;;9.67;37.62;101176.22;4880604;29;20057;-73
2022/03/07 10:01:19;;;;;;;18.38;9.27;;;;;;;9.91;36.29;101182.19;4880507;29;20068;-73
2022/03/07 10:03:50;;;;;;;16.10;9.73;;;;;;;10.13;35.76;101164.88;4880364;29;20497;-73
2022/03/07 10:06:19;;;;;;;17.88;9.82;;;;;;;10.13;34.58;101175.81;4880419;29;20041;-73
2022/03/07 10:08:55;;;;;;;16.08;9.70;;;;;;;10.15;35.95;101168.16;4880595;29;20057;-73
2022/03/07 10:11:24;;;;;;;16.35;9.35;;;;;;;10.07;35.30;101174.13;4880337;29;20484;-73
2022/03/07 10:13:54;;;;;;;16.77;9.73;;;;;;;10.26;36.09;101169.03;4880337;29;20071;-73
2022/03/07 10:16:39;;;;;;;21.70;10.00;;;;;;;10.72;35.02;101167.69;4880396;29;20056;-74
2022/03/07 10:19:14;;;;;;;17.38;9.57;;;;;;;10.29;35.71;101168.53;4880418;29;20045;-72
2022/03/07 10:21:53;;;;;;;15.02;8.95;;;;;;;10.23;34.66;101175.06;4880530;29;20048;-72
2022/03/07 10:24:32;;;;;;;14.48;9.43;;;;;;;10.34;35.11;101167.72;4880437;29;20045;-72
2022/03/07 10:27:00;;;;;;;14.05;8.73;;;;;;;10.77;34.66;101164.16;4880450;29;20061;-72
2022/03/07 10:29:28;;;;;;;17.30;9.75;;;;;;;10.40;35.49;101165.88;4880584;29;20056;-72
2022/03/07 10:32:00;;;;;;;17.65;9.02;;;;;;;10.34;36.30;101167.72;4880348;29;20064;-72
2022/03/07 10:34:28;;;;;;;15.13;8.65;;;;;;;10.36;36.10;101168.28;4880121;29;20040;-72
2022/03/07 10:36:56;;;;;;;14.18;9.00;;;;;;;10.52;34.35;101160.19;4880274;29;20053;-72
2022/03/07 10:39:26;;;;;;;17.80;9.13;;;;;;;10.46;35.48;101160.16;4880569;29;20045;-72
2022/03/07 10:41:54;;;;;;;16.88;9.77;;;;;;;10.57;35.12;101147.34;4879652;29;20416;-73
2022/03/07 10:44:30;;;;;;;17.55;10.35;;;;;;;10.41;35.49;101151.91;4879937;29;20045;-73
2022/03/07 10:47:18;;;;;;;14.60;9.10;;;;;;;10.11;36.18;101142.41;4879554;29;20060;-73
2022/03/07 10:49:57;;;;;;;18.27;9.40;;;;;;;10.40;35.70;101131.09;4880116;29;20416;-73
2022/03/07 10:52:34;;;;;;;14.35;9.27;;;;;;;10.73;35.75;101137.31;4876584;29;20424;-72
2022/03/07 10:55:05;;;;;;;21.85;9.35;;;;;;;11.23;34.86;101134.19;4878473;29;20393;-73
2022/03/07 10:57:36;;;;;;;14.40;8.98;;;;;;;11.31;35.46;101137.47;4878777;29;20060;-74
2022/03/07 11:00:10;;;;;;;16.48;9.82;;;;;;;11.48;34.54;101131.78;4877885;29;20053;-73
2022/03/07 11:02:43;;;;;;;16.08;9.57;;;;;;;11.45;34.76;101124.06;4878771;29;20416;-73
2022/03/07 11:05:17;;;;;;;14.25;9.02;;;;;;;11.02;35.19;101125.09;4876363;29;20056;-74
2022/03/07 11:07:47;;;;;;;14.57;9.25;;;;;;;10.37;35.50;101122.59;4878755;29;20056;-73
2022/03/07 11:10:16;;;;;;;18.40;9.23;;;;;;;10.94;34.97;101114.69;4876262;29;20515;-73
2022/03/07 11:12:45;;;;;;;15.30;9.07;;;;;;;11.06;34.99;101118.00;4876072;29;20053;-72
2022/03/07 11:15:18;;;;;;;15.10;9.80;;;;;;;11.02;35.34;101114.97;4875170;29;20040;-74
2022/03/07 11:17:47;;;;;;;17.58;9.20;;;;;;;11.37;34.18;101104.34;4878899;29;20057;-73
2022/03/07 11:20:17;;;;;;;15.90;9.13;;;;;;;11.21;35.63;101100.78;4878016;29;20370;-76
2022/03/07 11:22:45;;;;;;;18.00;8.90;;;;;;;11.15;35.82;101093.63;4844837;29;20489;-76
2022/03/07 11:25:18;;;;;;;17.67;9.95;;;;;;;10.88;36.68;101087.28;4860096;29;20142;-76